Time;durP1;ratioP1;P1;durP2;ratioP2;P2;SDS_P1;SDS_P2;PMS_P1;PMS_P2;Temp;Humidity;BMP_temperature;BMP_pressure;BME280_temperature;BME280_humidity;BME280_pressure;Samples;Min_cycle;Max_cycle;Signal;HPM_P1;HPM_P2
2022/08/13 00:01:20;;;;;;;12.88;9.90;;;;;;;;;;4954874;29;20035;-65
2022/08/13 00:03:55;;;;;;;12.18;10.07;;;;;;;;;;4954938;29;20046;-66
2022/08/13 00:09:21;;;;;;;12.30;9.57;;;;;;;;;;4954827;28;20055;-66
2022/08/13 00:15:09;;;;;;;15.35;10.25;;;;;;;;;;4954821;28;20077;-65
2022/08/13 00:17:39;;;;;;;21.50;10.63;;;;;;;;;;4954481;28;20054;-65
2022/08/13 00:20:28;;;;;;;11.55;9.48;;;;;;;;;;4954579;28;20067;-65
2022/08/13 00:22:58;;;;;;;11.95;9.80;;;;;;;;;;4954534;29;20162;-65
2022/08/13 00:25:29;;;;;;;12.70;9.98;;;;;;;;;;4954594;28;20446;-65
2022/08/13 00:28:14;;;;;;;12.63;10.00;;;;;;;;;;4954590;28;20050;-66
2022/08/13 00:30:43;;;;;;;13.45;10.85;;;;;;;;;;4954500;28;20106;-65
2022/08/13 00:33:17;;;;;;;14.23;10.20;;;;;;;;;;4953232;29;20082;-65
2022/08/13 00:35:50;;;;;;;12.05;10.10;;;;;;;;;;4954336;28;20449;-65
2022/08/13 00:38:20;;;;;;;13.63;10.90;;;;;;;;;;4954304;28;20039;-65
2022/08/13 00:41:02;;;;;;;14.75;10.30;;;;;;;;;;4954383;28;20066;-66
2022/08/13 00:43:32;;;;;;;14.50;10.65;;;;;;;;;;4954421;28;20110;-65
2022/08/13 00:46:00;;;;;;;15.32;10.43;;;;;;;;;;4963589;28;20058;-65
2022/08/13 00:48:43;;;;;;;13.65;10.38;;;;;;;;;;4973728;28;20043;-65
2022/08/13 00:51:21;;;;;;;13.07;10.15;;;;;;;;;;4957602;28;20050;-65
2022/08/13 00:54:11;;;;;;;12.68;10.05;;;;;;;;;;4973486;28;20046;-65
2022/08/13 00:56:39;;;;;;;13.35;10.63;;;;;;;;;;4956175;28;20158;-65
2022/08/13 00:59:13;;;;;;;12.80;10.40;;;;;;;;;;4973481;28;20141;-65
2022/08/13 01:01:45;;;;;;;14.40;11.00;;;;;;;;;;4973539;28;20045;-65
2022/08/13 01:04:19;;;;;;;15.85;9.88;;;;;;;;;;4973420;28;20501;-66
2022/08/13 01:06:53;;;;;;;13.00;10.45;;;;;;;;;;4973534;28;20038;-65
2022/08/13 01:09:21;;;;;;;12.30;10.02;;;;;;;;;;4973571;28;20043;-65
2022/08/13 01:12:09;;;;;;;14.10;10.30;;;;;;;;;;4973713;28;20097;-65
2022/08/13 01:14:44;;;;;;;12.32;10.18;;;;;;;;;;4973413;28;20043;-66
2022/08/13 01:17:15;;;;;;;12.48;10.73;;;;;;;;;;4975488;28;20069;-65
2022/08/13 01:19:44;;;;;;;14.70;10.05;;;;;;;;;;4977221;28;20358;-65
2022/08/13 01:22:22;;;;;;;12.48;10.00;;;;;;;;;;4976971;28;20045;-65
2022/08/13 01:25:04;;;;;;;13.65;10.38;;;;;;;;;;4977077;28;20054;-66
2022/08/13 01:27:36;;;;;;;12.02;9.90;;;;;;;;;;4977051;28;20050;-65
2022/08/13 01:30:09;;;;;;;13.88;11.02;;;;;;;;;;4976992;28;20043;-65
2022/08/13 01:32:38;;;;;;;13.40;10.63;;;;;;;;;;4976855;28;20039;-65
2022/08/13 01:35:23;;;;;;;15.27;10.60;;;;;;;;;;4976721;28;20042;-65
2022/08/13 01:37:53;;;;;;;13.02;10.43;;;;;;;;;;4976976;28;20050;-65
2022/08/13 01:40:33;;;;;;;14.52;10.77;;;;;;;;;;4976820;28;20034;-65
2022/08/13 01:43:03;;;;;;;13.90;10.63;;;;;;;;;;4976810;28;20043;-65
2022/08/13 01:45:50;;;;;;;13.55;11.07;;;;;;;;;;4976562;28;20405;-66
2022/08/13 01:51:28;;;;;;;14.73;10.27;;;;;;;;;;4976634;28;20485;-65
2022/08/13 01:54:09;;;;;;;14.63;11.18;;;;;;;;;;4976520;28;20037;-66
2022/08/13 01:56:59;;;;;;;13.93;10.88;;;;;;;;;;4976469;28;20042;-65
2022/08/13 01:59:28;;;;;;;13.07;10.70;;;;;;;;;;4976381;28;20049;-66
2022/08/13 02:02:15;;;;;;;14.38;10.98;;;;;;;;;;4976413;28;20587;-66
2022/08/13 02:05:03;;;;;;;13.10;10.82;;;;;;;;;;4976713;28;20101;-65
2022/08/13 02:07:42;;;;;;;17.63;10.73;;;;;;;;;;4960058;28;20070;-65
2022/08/13 02:10:29;;;;;;;12.63;10.55;;;;;;;;;;4976233;28;20039;-65
2022/08/13 02:12:59;;;;;;;17.27;11.48;;;;;;;;;;4976162;28;20038;-65
2022/08/13 02:15:27;;;;;;;21.92;11.00;;;;;;;;;;4958862;28;20046;-65
2022/08/13 02:18:16;;;;;;;17.92;10.90;;;;;;;;;;4976009;28;20047;-65
2022/08/13 02:20:47;;;;;;;16.25;10.48;;;;;;;;;;4976023;28;20050;-66
2022/08/13 02:23:27;;;;;;;16.52;11.23;;;;;;;;;;4959063;28;20062;-65
2022/08/13 02:26:17;;;;;;;21.10;11.00;;;;;;;;;;4976171;28;20550;-65
2022/08/13 02:28:44;;;;;;;14.98;11.07;;;;;;;;;;4975024;28;20061;-66
2022/08/13 02:31:18;;;;;;;16.63;11.07;;;;;;;;;;4975808;28;20042;-65
2022/08/13 02:34:06;;;;;;;15.48;10.57;;;;;;;;;;4975773;28;20057;-66
2022/08/13 02:36:43;;;;;;;16.23;11.20;;;;;;;;;;4975870;28;20047;-65
2022/08/13 02:39:14;;;;;;;13.55;10.63;;;;;;;;;;4975436;28;20039;-66
2022/08/13 02:41:43;;;;;;;13.38;11.13;;;;;;;;;;4975638;28;20126;-65
2022/08/13 02:44:20;;;;;;;13.77;10.63;;;;;;;;;;4975582;28;20046;-65
2022/08/13 02:47:01;;;;;;;15.15;11.18;;;;;;;;;;4975352;28;20125;-65
2022/08/13 02:49:29;;;;;;;15.05;11.70;;;;;;;;;;4975223;28;20047;-65
2022/08/13 02:52:14;;;;;;;13.77;10.83;;;;;;;;;;4975553;28;20544;-65
2022/08/13 02:54:44;;;;;;;12.85;10.82;;;;;;;;;;4975276;28;20058;-65
2022/08/13 02:57:22;;;;;;;13.82;11.35;;;;;;;;;;4975488;28;20122;-65
2022/08/13 02:59:50;;;;;;;15.13;11.50;;;;;;;;;;4975205;28;20093;-65
2022/08/13 03:02:35;;;;;;;;;;;;;;;;;;4975767;28;20572;-65
2022/08/13 03:05:02;;;;;;;14.02;10.70;;;;;;;;;;4975211;28;19922;-65
2022/08/13 03:07:33;;;;;;;16.85;11.60;;;;;;;;;;4958481;28;20078;-65
2022/08/13 03:10:19;;;;;;;13.90;11.20;;;;;;;;;;4975387;28;20050;-65
2022/08/13 03:13:03;;;;;;;14.10;10.98;;;;;;;;;;4975120;28;20129;-65
2022/08/13 03:15:32;;;;;;;16.92;11.25;;;;;;;;;;4975095;28;20038;-65
2022/08/13 03:18:01;;;;;;;14.35;11.60;;;;;;;;;;4974651;28;20125;-65
2022/08/13 03:20:28;;;;;;;13.85;11.45;;;;;;;;;;4974638;28;20043;-65
2022/08/13 03:23:03;;;;;;;;;;;;;;;;;;4975272;28;20489;-65
2022/08/13 03:25:31;;;;;;;15.18;11.32;;;;;;;;;;4975078;28;19929;-64
2022/08/13 03:27:59;;;;;;;16.48;11.93;;;;;;;;;;4974868;28;20545;-65
2022/08/13 03:30:27;;;;;;;15.82;11.35;;;;;;;;;;4974723;28;20058;-65
2022/08/13 03:32:57;;;;;;;16.80;11.25;;;;;;;;;;4974657;28;20528;-65
2022/08/13 03:35:27;;;;;;;17.38;11.35;;;;;;;;;;4974574;28;20042;-65
2022/08/13 03:38:12;;;;;;;14.98;11.07;;;;;;;;;;4974453;28;20035;-65
2022/08/13 03:43:27;;;;;;;13.95;11.07;;;;;;;;;;4974156;28;20038;-65
2022/08/13 03:45:59;;;;;;;15.38;11.52;;;;;;;;;;4973841;28;20093;-65
2022/08/13 03:48:28;;;;;;;16.20;11.30;;;;;;;;;;4973946;28;20492;-65
2022/08/13 03:51:00;;;;;;;15.90;11.77;;;;;;;;;;4974019;28;20466;-65
2022/08/13 03:53:29;;;;;;;17.40;11.30;;;;;;;;;;4974282;28;20039;-65
2022/08/13 03:56:12;;;;;;;15.48;10.52;;;;;;;;;;4974258;28;20070;-65
2022/08/13 03:58:44;;;;;;;13.68;11.77;;;;;;;;;;4974342;28;20051;-65
2022/08/13 04:01:14;;;;;;;18.38;11.40;;;;;;;;;;4974368;28;20042;-65
2022/08/13 04:03:46;;;;;;;15.27;12.10;;;;;;;;;;4974173;28;20122;-65
2022/08/13 04:06:19;;;;;;;15.60;11.40;;;;;;;;;;4973993;28;20045;-75
2022/08/13 04:08:53;;;;;;;15.38;12.15;;;;;;;;;;4957902;28;20382;-65
2022/08/13 04:11:22;;;;;;;14.88;11.43;;;;;;;;;;4973993;28;20438;-64
2022/08/13 04:13:57;;;;;;;17.85;11.00;;;;;;;;;;4973908;28;20047;-65
2022/08/13 04:16:33;;;;;;;16.77;12.02;;;;;;;;;;4973665;28;20050;-65
2022/08/13 04:19:01;;;;;;;20.55;13.27;;;;;;;;;;4973824;28;20491;-65
2022/08/13 04:21:32;;;;;;;16.65;11.90;;;;;;;;;;4973861;28;20062;-65
2022/08/13 04:24:04;;;;;;;16.98;12.60;;;;;;;;;;4973876;28;20042;-66
2022/08/13 04:26:38;;;;;;;14.80;12.65;;;;;;;;;;4973772;28;20063;-65
2022/08/13 04:29:11;;;;;;;16.60;12.00;;;;;;;;;;4973854;28;20051;-66
2022/08/13 04:31:45;;;;;;;18.45;13.43;;;;;;;;;;4973749;28;20051;-63
2022/08/13 04:34:19;;;;;;;17.57;12.37;;;;;;;;;;4973839;28;20464;-66
2022/08/13 04:37:09;;;;;;;22.42;13.93;;;;;;;;;;4973565;28;20616;-66
2022/08/13 04:39:47;;;;;;;18.95;12.82;;;;;;;;;;4958020;28;20054;-66
2022/08/13 04:42:45;;;;;;;17.38;12.13;;;;;;;;;;4973544;28;20043;-66
2022/08/13 04:45:16;;;;;;;15.55;11.85;;;;;;;;;;4957076;28;20422;-66
2022/08/13 04:47:44;;;;;;;19.42;12.88;;;;;;;;;;4973720;28;20045;-66
2022/08/13 04:50:14;;;;;;;16.58;12.23;;;;;;;;;;4973560;28;20126;-66
2022/08/13 04:52:44;;;;;;;16.50;12.10;;;;;;;;;;4976706;28;20049;-66
2022/08/13 04:55:16;;;;;;;16.15;11.95;;;;;;;;;;4977681;28;20046;-66
2022/08/13 04:57:44;;;;;;;18.05;12.82;;;;;;;;;;4977274;28;20043;-64
2022/08/13 05:00:32;;;;;;;18.00;12.40;;;;;;;;;;4977552;28;20051;-65
2022/08/13 05:03:16;;;;;;;37.22;13.52;;;;;;;;;;4977546;28;20066;-65
2022/08/13 05:05:46;;;;;;;23.17;12.02;;;;;;;;;;4977474;28;20131;-65
2022/08/13 05:08:16;;;;;;;16.15;11.85;;;;;;;;;;4977325;28;20413;-65
2022/08/13 05:10:45;;;;;;;13.30;11.68;;;;;;;;;;4959841;28;20465;-65
2022/08/13 05:13:25;;;;;;;12.90;11.10;;;;;;;;;;4977162;28;20047;-65
2022/08/13 05:15:56;;;;;;;18.33;11.60;;;;;;;;;;4977326;28;20370;-66
2022/08/13 05:18:28;;;;;;;16.42;11.40;;;;;;;;;;4977186;28;20504;-66
2022/08/13 05:21:01;;;;;;;14.68;11.73;;;;;;;;;;4977138;28;20046;-67
2022/08/13 05:23:33;;;;;;;15.15;11.55;;;;;;;;;;4977098;28;20050;-67
2022/08/13 05:26:24;;;;;;;14.15;10.98;;;;;;;;;;4977299;28;20047;-67
2022/08/13 05:29:04;;;;;;;14.82;11.43;;;;;;;;;;4976984;28;20045;-66
2022/08/13 05:31:36;;;;;;;14.93;12.00;;;;;;;;;;4977040;28;20516;-67
2022/08/13 05:34:25;;;;;;;15.38;11.18;;;;;;;;;;4976942;28;20077;-66
2022/08/13 05:36:53;;;;;;;14.15;11.10;;;;;;;;;;4977031;28;20035;-66
2022/08/13 05:39:42;;;;;;;13.85;11.02;;;;;;;;;;4972871;28;20038;-67
2022/08/13 05:42:18;;;;;;;13.82;10.98;;;;;;;;;;4975027;28;20041;-67
2022/08/13 05:44:56;;;;;;;14.23;11.00;;;;;;;;;;4975574;28;20362;-67
2022/08/13 05:47:26;;;;;;;15.18;11.93;;;;;;;;;;4975373;28;20782;-66
2022/08/13 05:49:57;;;;;;;14.32;11.40;;;;;;;;;;4976278;28;20050;-66
2022/08/13 05:52:30;;;;;;;15.75;11.57;;;;;;;;;;4976370;28;20501;-66
2022/08/13 05:55:11;;;;;;;13.18;10.85;;;;;;;;;;4958999;28;20051;-67
2022/08/13 05:57:58;;;;;;;14.75;10.43;;;;;;;;;;4965158;28;20038;-66
2022/08/13 06:03:25;;;;;;;17.75;11.55;;;;;;;;;;4974665;28;20461;-67
2022/08/13 06:06:15;;;;;;;15.05;11.05;;;;;;;;;;4964864;28;20074;-68
2022/08/13 06:08:50;;;;;;;13.02;10.68;;;;;;;;;;4976290;28;20070;-68
2022/08/13 06:11:19;;;;;;;13.82;10.60;;;;;;;;;;4975858;28;20053;-69
2022/08/13 06:14:07;;;;;;;14.25;10.77;;;;;;;;;;4976111;28;20038;-68
2022/08/13 06:16:37;;;;;;;12.27;9.82;;;;;;;;;;4975849;28;20109;-68
2022/08/13 06:19:26;;;;;;;11.65;10.43;;;;;;;;;;4976188;28;20065;-67
2022/08/13 06:22:01;;;;;;;15.05;12.07;;;;;;;;;;4974884;28;20043;-67
2022/08/13 06:24:32;;;;;;;15.27;11.38;;;;;;;;;;4976034;28;20039;-68
2022/08/13 06:27:04;;;;;;;16.77;11.88;;;;;;;;;;4975654;28;20049;-68
2022/08/13 06:29:43;;;;;;;16.85;11.45;;;;;;;;;;4975671;28;20506;-68
2022/08/13 06:32:20;;;;;;;15.48;10.88;;;;;;;;;;4975488;28;20493;-68
2022/08/13 06:35:08;;;;;;;15.27;11.10;;;;;;;;;;4975301;28;20038;-68
2022/08/13 06:37:43;;;;;;;13.73;11.73;;;;;;;;;;4974220;28;20047;-68
2022/08/13 06:40:20;;;;;;;17.42;10.93;;;;;;;;;;4975078;28;20051;-68
2022/08/13 06:43:05;;;;;;;13.63;10.40;;;;;;;;;;4965497;28;20042;-67
2022/08/13 06:45:33;;;;;;;16.20;10.48;;;;;;;;;;4975067;28;20055;-67
2022/08/13 06:48:02;;;;;;;15.00;10.43;;;;;;;;;;4975374;28;20034;-67
2022/08/13 06:50:34;;;;;;;12.15;10.23;;;;;;;;;;4958047;28;20413;-67
2022/08/13 06:53:11;;;;;;;13.77;10.45;;;;;;;;;;4974002;28;20053;-67
2022/08/13 06:55:58;;;;;;;12.52;10.40;;;;;;;;;;4975232;28;20123;-66
2022/08/13 06:58:47;;;;;;;12.48;10.15;;;;;;;;;;4975276;28;20035;-66
2022/08/13 07:01:24;;;;;;;11.57;10.40;;;;;;;;;;4974984;28;20043;-66
2022/08/13 07:03:54;;;;;;;13.60;10.27;;;;;;;;;;4975166;28;20042;-66
2022/08/13 07:06:27;;;;;;;11.88;10.05;;;;;;;;;;4974845;28;20043;-68
2022/08/13 07:08:56;;;;;;;11.75;10.55;;;;;;;;;;4974806;28;20121;-65
2022/08/13 07:11:24;;;;;;;10.57;9.45;;;;;;;;;;4974858;28;20034;-66
2022/08/13 07:14:07;;;;;;;13.43;10.63;;;;;;;;;;4974541;28;20125;-66
2022/08/13 07:16:40;;;;;;;14.63;9.88;;;;;;;;;;4974969;28;20049;-65
2022/08/13 07:19:11;;;;;;;14.15;9.57;;;;;;;;;;4974579;28;20034;-66
2022/08/13 07:21:40;;;;;;;14.73;10.02;;;;;;;;;;4974920;28;20051;-66
2022/08/13 07:24:10;;;;;;;12.77;9.80;;;;;;;;;;4974634;28;20435;-67
2022/08/13 07:27:05;;;;;;;11.00;9.85;;;;;;;;;;4973619;28;20457;-68
2022/08/13 07:29:37;;;;;;;12.70;9.57;;;;;;;;;;4973719;28;20516;-68
2022/08/13 07:32:19;;;;;;;12.68;10.68;;;;;;;;;;4973897;28;20540;-68
2022/08/13 07:35:00;;;;;;;11.93;10.38;;;;;;;;;;4974762;28;20035;-68
2022/08/13 07:37:27;;;;;;;11.55;9.55;;;;;;;;;;4974232;28;20093;-68
2022/08/13 07:39:56;;;;;;;12.32;9.65;;;;;;;;;;4974372;28;20134;-68
2022/08/13 07:42:28;;;;;;;13.23;10.07;;;;;;;;;;4974279;28;20039;-68
2022/08/13 07:44:59;;;;;;;11.43;10.02;;;;;;;;;;4964579;28;20050;-67
2022/08/13 07:47:50;;;;;;;11.63;9.60;;;;;;;;;;4974201;28;20038;-67
2022/08/13 07:50:38;;;;;;;11.68;9.52;;;;;;;;;;4974089;28;20130;-67
2022/08/13 07:53:10;;;;;;;12.82;9.45;;;;;;;;;;4956707;28;20042;-68
2022/08/13 07:55:44;;;;;;;10.05;9.05;;;;;;;;;;4973877;28;20489;-67
2022/08/13 07:58:34;;;;;;;12.35;9.38;;;;;;;;;;4973991;28;20121;-66
2022/08/13 08:01:02;;;;;;;11.52;9.18;;;;;;;;;;4972911;28;20058;-67
2022/08/13 08:03:41;;;;;;;10.73;9.52;;;;;;;;;;4973842;28;20397;-66
2022/08/13 08:06:18;;;;;;;13.00;9.63;;;;;;;;;;4973977;28;20133;-66
2022/08/13 08:08:57;;;;;;;11.50;9.55;;;;;;;;;;4974036;28;20370;-68
2022/08/13 08:14:21;;;;;;;10.32;8.98;;;;;;;;;;4964070;28;20109;-67
2022/08/13 08:17:01;;;;;;;10.18;8.85;;;;;;;;;;4973587;28;20042;-70
2022/08/13 08:19:50;;;;;;;11.35;9.23;;;;;;;;;;4956319;28;20467;-70
2022/08/13 08:22:44;;;;;;;11.25;9.30;;;;;;;;;;4973698;28;20038;-69
2022/08/13 08:25:16;;;;;;;11.52;9.25;;;;;;;;;;4973705;28;20375;-68
2022/08/13 08:27:50;;;;;;;11.63;9.93;;;;;;;;;;4972969;28;20415;-68
2022/08/13 08:30:38;;;;;;;10.68;9.43;;;;;;;;;;4972869;28;20043;-69
2022/08/13 08:33:26;;;;;;;12.52;9.90;;;;;;;;;;4970583;28;20065;-69
2022/08/13 08:36:13;;;;;;;10.30;8.70;;;;;;;;;;4956687;28;20046;-68
2022/08/13 08:44:32;;;;;;;12.23;8.98;;;;;;;;;;4973354;28;20035;-68
2022/08/13 08:47:01;;;;;;;11.23;8.88;;;;;;;;;;4973114;28;20564;-68
2022/08/13 08:49:36;;;;;;;11.35;9.90;;;;;;;;;;4971532;28;20093;-69
2022/08/13 08:52:11;;;;;;;12.73;9.15;;;;;;;;;;4972798;28;20512;-68
2022/08/13 08:54:45;;;;;;;12.88;9.55;;;;;;;;;;4956782;28;20501;-67
2022/08/13 08:57:14;;;;;;;12.15;9.57;;;;;;;;;;4972763;28;20039;-68
2022/08/13 08:59:43;;;;;;;10.40;9.27;;;;;;;;;;4972246;28;20035;-64
2022/08/13 09:02:24;;;;;;;13.18;10.15;;;;;;;;;;4972235;28;20043;-70
2022/08/13 09:04:54;;;;;;;;;;;;;;;;;;4968480;28;20039;-69
2022/08/13 09:07:27;;;;;;;11.75;10.05;;;;;;;;;;4972182;28;19922;-70
2022/08/13 09:09:57;;;;;;;12.80;9.30;;;;;;;;;;4972255;28;20524;-70
2022/08/13 09:12:28;;;;;;;11.80;10.30;;;;;;;;;;4972949;28;20035;-68
2022/08/13 09:14:57;;;;;;;11.18;9.27;;;;;;;;;;4972148;28;20042;-70
2022/08/13 09:17:27;;;;;;;12.43;9.00;;;;;;;;;;4972091;28;20504;-71
2022/08/13 09:20:12;;;;;;;10.50;8.98;;;;;;;;;;4971976;28;20035;-76
2022/08/13 09:22:41;;;;;;;12.35;9.05;;;;;;;;;;4972799;28;20054;-78
2022/08/13 09:25:22;;;;;;;13.18;9.40;;;;;;;;;;4972776;28;20042;-75
2022/08/13 09:27:51;;;;;;;10.10;9.10;;;;;;;;;;4972660;28;20105;-73
2022/08/13 09:30:38;;;;;;;13.18;11.23;;;;;;;;;;4958030;28;20389;-73
2022/08/13 09:33:06;;;;;;;14.90;11.25;;;;;;;;;;4954726;28;20085;-73
2022/08/13 09:35:33;;;;;;;9.75;8.75;;;;;;;;;;4972202;28;20065;-71
2022/08/13 09:38:04;;;;;;;14.40;10.65;;;;;;;;;;4973713;28;20047;-73
2022/08/13 09:40:33;;;;;;;10.65;8.95;;;;;;;;;;4975941;28;20042;-75
2022/08/13 09:43:22;;;;;;;11.50;10.30;;;;;;;;;;4975900;28;20081;-72
2022/08/13 09:46:10;;;;;;;11.45;9.10;;;;;;;;;;4953033;28;20054;-72
2022/08/13 09:48:45;;;;;;;10.30;8.05;;;;;;;;;;4976021;28;20054;-71
2022/08/13 09:51:14;;;;;;;11.23;9.48;;;;;;;;;;4975766;28;20041;-72
2022/08/13 09:54:05;;;;;;;9.25;8.32;;;;;;;;;;4975684;28;20129;-72
2022/08/13 09:56:38;;;;;;;11.15;9.07;;;;;;;;;;4974931;28;20090;-71
2022/08/13 09:59:08;;;;;;;9.75;8.10;;;;;;;;;;4975438;28;20031;-71
2022/08/13 10:01:56;;;;;;;9.82;8.80;;;;;;;;;;4975017;28;20046;-71
2022/08/13 10:04:26;;;;;;;11.32;8.45;;;;;;;;;;4975361;28;20130;-73
2022/08/13 10:06:57;;;;;;;9.98;8.45;;;;;;;;;;4976012;28;20058;-73
2022/08/13 10:09:28;;;;;;;10.82;8.30;;;;;;;;;;4975821;28;20544;-72
2022/08/13 10:12:07;;;;;;;10.60;8.13;;;;;;;;;;4975790;28;20034;-73
2022/08/13 10:14:47;;;;;;;10.27;7.90;;;;;;;;;;4957912;28;20046;-72
2022/08/13 10:17:24;;;;;;;9.65;7.60;;;;;;;;;;4975692;28;20039;-72
2022/08/13 10:20:13;;;;;;;9.23;8.25;;;;;;;;;;4961391;28;20061;-75
2022/08/13 10:22:42;;;;;;;12.68;8.48;;;;;;;;;;4975372;28;20043;-75
2022/08/13 10:25:11;;;;;;;11.77;8.43;;;;;;;;;;4975022;28;20119;-73
2022/08/13 10:27:39;;;;;;;9.95;7.75;;;;;;;;;;4975125;28;20062;-76
2022/08/13 10:30:17;;;;;;;10.35;8.52;;;;;;;;;;4975201;28;20050;-75
2022/08/13 10:33:04;;;;;;;12.25;9.63;;;;;;;;;;4969746;28;20504;-77
2022/08/13 10:35:32;;;;;;;13.75;10.25;;;;;;;;;;4974970;28;20126;-72
2022/08/13 10:38:07;;;;;;;12.67;9.70;;;;;;;;;;4975236;28;20042;-75
2022/08/13 10:40:35;;;;;;;12.55;11.25;;;;;;;;;;4975405;28;20083;-73
2022/08/13 10:43:05;;;;;;;12.10;8.32;;;;;;;;;;4974939;28;20123;-74
2022/08/13 10:45:45;;;;;;;12.30;8.48;;;;;;;;;;4974774;28;20059;-76
2022/08/13 10:48:14;;;;;;;10.40;8.40;;;;;;;;;;4974826;28;20046;-71
2022/08/13 10:50:46;;;;;;;12.85;8.68;;;;;;;;;;4974386;28;20042;-76
2022/08/13 10:56:12;;;;;;;12.07;9.30;;;;;;;;;;4974646;28;20035;-77
2022/08/13 10:58:44;;;;;;;10.55;8.18;;;;;;;;;;4956871;28;20039;-78
2022/08/13 11:01:23;;;;;;;10.07;8.38;;;;;;;;;;4961058;28;20146;-77
2022/08/13 11:03:52;;;;;;;13.00;8.00;;;;;;;;;;4972068;28;20038;-74
2022/08/13 11:06:32;;;;;;;11.93;8.48;;;;;;;;;;4959303;28;20053;-76
2022/08/13 11:09:03;;;;;;;9.90;7.80;;;;;;;;;;4974319;28;20070;-76
2022/08/13 11:11:50;;;;;;;34.40;30.77;;;;;;;;;;4971210;28;20523;-75
2022/08/13 11:14:21;;;;;;;9.60;8.07;;;;;;;;;;4973496;28;20054;-75
2022/08/13 11:16:57;;;;;;;13.60;6.90;;;;;;;;;;4971469;28;20047;-71
2022/08/13 11:19:34;;;;;;;12.02;6.90;;;;;;;;;;4952616;28;20508;-73
2022/08/13 11:22:23;;;;;;;7.43;6.72;;;;;;;;;;4972920;28;20057;-72
2022/08/13 11:24:55;;;;;;;13.50;7.40;;;;;;;;;;4973181;28;20070;-73
2022/08/13 11:27:23;;;;;;;12.80;7.80;;;;;;;;;;4973308;28;20097;-83
2022/08/13 11:30:01;;;;;;;10.65;7.65;;;;;;;;;;4972110;28;20038;-74
2022/08/13 11:32:29;;;;;;;8.40;7.60;;;;;;;;;;4954045;28;20031;-78
2022/08/13 11:34:57;;;;;;;9.98;8.00;;;;;;;;;;4972640;28;20047;-73
2022/08/13 11:37:25;;;;;;;9.35;6.90;;;;;;;;;;4938914;28;20046;-77
2022/08/13 11:40:07;;;;;;;11.05;7.82;;;;;;;;;;4956110;28;20047;-75
2022/08/13 11:42:54;;;;;;;10.07;6.78;;;;;;;;;;4968615;28;20066;-75
2022/08/13 11:45:37;;;;;;;10.52;6.85;;;;;;;;;;4973717;28;20058;-77
2022/08/13 11:48:13;;;;;;;9.43;6.65;;;;;;;;;;4973987;28;20462;-72
2022/08/13 11:50:55;;;;;;;8.38;7.28;;;;;;;;;;4973893;28;20096;-77
2022/08/13 11:53:23;;;;;;;9.80;7.50;;;;;;;;;;4973828;28;20066;-72
2022/08/13 11:55:52;;;;;;;9.88;7.00;;;;;;;;;;4956680;28;20046;-74
2022/08/13 11:58:24;;;;;;;9.45;7.03;;;;;;;;;;4973474;28;20038;-71
2022/08/13 12:01:12;;;;;;;10.75;7.03;;;;;;;;;;4972002;28;20046;-76
2022/08/13 12:03:40;;;;;;;9.75;7.88;;;;;;;;;;4955695;28;20046;-74
2022/08/13 12:06:27;;;;;;;8.68;7.30;;;;;;;;;;4973456;28;20047;-74
2022/08/13 12:08:56;;;;;;;10.75;6.80;;;;;;;;;;4973507;28;20035;-72
2022/08/13 12:11:44;;;;;;;10.32;7.15;;;;;;;;;;4973427;28;20410;-62
2022/08/13 12:14:31;;;;;;;8.13;6.85;;;;;;;;;;4973657;28;20035;-61
2022/08/13 12:16:59;;;;;;;10.15;6.68;;;;;;;;;;4972122;28;20034;-62
2022/08/13 12:19:28;;;;;;;8.02;6.50;;;;;;;;;;4973375;28;20047;-62
2022/08/13 12:21:56;;;;;;;9.02;6.60;;;;;;;;;;4972675;28;20043;-62
2022/08/13 12:24:24;;;;;;;9.60;6.85;;;;;;;;;;4968955;28;20039;-62
2022/08/13 12:27:00;;;;;;;10.25;7.25;;;;;;;;;;4972813;28;20158;-61
2022/08/13 12:29:31;;;;;;;9.63;7.18;;;;;;;;;;4973174;28;20654;-61
2022/08/13 12:32:14;;;;;;;9.32;8.27;;;;;;;;;;4973239;28;20129;-61
2022/08/13 12:34:44;;;;;;;9.80;6.97;;;;;;;;;;4973308;28;20066;-61
2022/08/13 12:37:20;;;;;;;8.45;6.63;;;;;;;;;;4973210;28;20050;-61
2022/08/13 12:39:53;;;;;;;10.13;6.95;;;;;;;;;;4973227;28;20070;-61
2022/08/13 12:42:22;;;;;;;9.43;6.45;;;;;;;;;;4973193;28;20090;-61
2022/08/13 12:44:56;;;;;;;8.52;6.55;;;;;;;;;;4972987;28;20481;-62
2022/08/13 12:47:44;;;;;;;8.73;6.35;;;;;;;;;;4973309;28;20065;-61
2022/08/13 12:50:17;;;;;;;8.88;5.85;;;;;;;;;;4973215;28;20121;-61
2022/08/13 12:52:51;;;;;;;8.45;6.28;;;;;;;;;;4973116;28;20382;-61
2022/08/13 12:55:19;;;;;;;10.88;6.68;;;;;;;;;;4973230;28;20437;-62
2022/08/13 12:57:59;;;;;;;10.75;6.85;;;;;;;;;;4973053;28;20050;-62
2022/08/13 13:00:31;;;;;;;11.98;6.60;;;;;;;;;;4972795;28;20043;-62
2022/08/13 13:03:02;;;;;;;7.75;6.63;;;;;;;;;;4972409;28;20034;-62
2022/08/13 13:05:39;;;;;;;11.82;7.18;;;;;;;;;;4973167;28;20070;-62
2022/08/13 13:08:33;;;;;;;10.73;6.60;;;;;;;;;;4956147;28;20409;-62
2022/08/13 13:11:05;;;;;;;7.65;6.13;;;;;;;;;;4971849;28;20142;-62
2022/08/13 13:13:43;;;;;;;9.23;6.75;;;;;;;;;;4975767;28;20043;-62
2022/08/13 13:16:21;;;;;;;9.25;6.82;;;;;;;;;;4976760;28;20047;-62
2022/08/13 13:19:04;;;;;;;9.20;6.30;;;;;;;;;;4976074;28;20102;-63
2022/08/13 13:21:43;;;;;;;9.90;6.88;;;;;;;;;;4976232;28;20054;-62
2022/08/13 13:24:13;;;;;;;11.88;7.07;;;;;;;;;;4975705;28;20417;-62
2022/08/13 13:26:49;;;;;;;9.30;6.70;;;;;;;;;;4953569;28;20042;-63
2022/08/13 13:29:29;;;;;;;7.10;6.40;;;;;;;;;;4974770;28;20045;-62
2022/08/13 13:32:04;;;;;;;7.53;6.00;;;;;;;;;;4975308;28;20419;-68
2022/08/13 13:34:52;;;;;;;6.72;5.63;;;;;;;;;;4976190;28;20051;-61
2022/08/13 13:37:21;;;;;;;8.85;5.82;;;;;;;;;;4976053;28;20374;-63
2022/08/13 13:39:49;;;;;;;8.20;5.28;;;;;;;;;;4976219;28;20050;-68
2022/08/13 13:42:17;;;;;;;8.60;5.80;;;;;;;;;;4974749;28;20047;-66
2022/08/13 13:44:57;;;;;;;9.70;5.78;;;;;;;;;;4971506;28;20061;-66
2022/08/13 13:47:25;;;;;;;6.35;5.63;;;;;;;;;;4975887;28;20042;-67
2022/08/13 13:49:53;;;;;;;7.93;5.75;;;;;;;;;;4976125;28;20043;-66
2022/08/13 13:52:21;;;;;;;8.13;6.43;;;;;;;;;;4976016;28;20053;-66
2022/08/13 13:54:50;;;;;;;9.15;6.43;;;;;;;;;;4976243;28;20043;-66
2022/08/13 13:57:24;;;;;;;8.55;6.68;;;;;;;;;;4976094;28;20042;-67
2022/08/13 14:00:04;;;;;;;7.78;5.93;;;;;;;;;;4963778;28;20478;-67
2022/08/13 14:02:34;;;;;;;9.13;6.00;;;;;;;;;;4975746;28;20073;-67
2022/08/13 14:05:14;;;;;;;9.20;6.18;;;;;;;;;;4975995;28;20069;-62
2022/08/13 14:07:53;;;;;;;9.93;6.15;;;;;;;;;;4975826;28;20043;-65
2022/08/13 14:10:22;;;;;;;19.42;16.02;;;;;;;;;;4975864;28;20046;-73
2022/08/13 14:12:51;;;;;;;9.02;6.70;;;;;;;;;;4975694;28;20400;-69
2022/08/13 14:15:38;;;;;;;21.90;12.63;;;;;;;;;;4975827;28;20043;-82
2022/08/13 14:18:07;;;;;;;12.90;7.80;;;;;;;;;;4959889;28;20043;-84
2022/08/13 14:20:55;;;;;;;16.15;7.70;;;;;;;;;;4975993;28;20073;-79
2022/08/13 14:23:25;;;;;;;10.80;5.63;;;;;;;;;;4958148;28;20055;-80
2022/08/13 14:26:10;;;;;;;9.75;7.15;;;;;;;;;;4975174;28;20074;-80
2022/08/13 14:28:44;;;;;;;7.97;6.55;;;;;;;;;;4958836;28;20118;-79
2022/08/13 14:31:14;;;;;;;20.60;7.45;;;;;;;;;;4975498;28;20043;-82
2022/08/13 14:33:43;;;;;;;17.88;8.27;;;;;;;;;;4975091;28;20421;-82
2022/08/13 14:36:29;;;;;;;14.13;8.75;;;;;;;;;;4975550;28;20038;-81
2022/08/13 14:39:03;;;;;;;17.63;8.25;;;;;;;;;;4959526;28;20481;-79
2022/08/13 14:41:47;;;;;;;33.88;11.50;;;;;;;;;;4966627;28;20050;-77
2022/08/13 14:44:16;;;;;;;21.50;10.50;;;;;;;;;;4976850;28;20090;-80
2022/08/13 14:47:04;;;;;;;12.20;7.70;;;;;;;;;;4975390;28;20417;-79
2022/08/13 14:49:36;;;;;;;19.10;9.23;;;;;;;;;;4942663;28;20041;-81
2022/08/13 14:52:27;;;;;;;12.68;8.10;;;;;;;;;;4973600;28;20584;-81
2022/08/13 14:55:16;;;;;;;13.00;8.15;;;;;;;;;;4973054;28;20050;-84
2022/08/13 14:57:44;;;;;;;24.00;10.15;;;;;;;;;;4971193;28;20097;-79
2022/08/13 15:00:14;;;;;;;13.90;9.50;;;;;;;;;;4951074;28;20043;-79
2022/08/13 15:02:52;;;;;;;14.13;9.52;;;;;;;;;;4967389;28;20150;-79
2022/08/13 15:05:40;;;;;;;15.68;8.55;;;;;;;;;;4974535;28;20504;-78
2022/08/13 15:08:21;;;;;;;16.27;8.05;;;;;;;;;;4974450;28;20098;-81
2022/08/13 15:11:00;;;;;;;11.07;8.85;;;;;;;;;;4974482;28;20489;-80
2022/08/13 15:13:34;;;;;;;11.32;8.25;;;;;;;;;;4974527;28;20043;-79
2022/08/13 15:16:25;;;;;;;10.45;8.73;;;;;;;;;;4974619;28;20485;-79
2022/08/13 15:18:59;;;;;;;12.38;8.70;;;;;;;;;;4974337;28;20038;-79
2022/08/13 15:21:36;;;;;;;10.13;8.05;;;;;;;;;;4974527;28;20047;-78
2022/08/13 15:24:29;;;;;;;9.93;7.82;;;;;;;;;;4972432;28;20046;-80
2022/08/13 15:27:28;;;;;;;12.63;8.15;;;;;;;;;;4971867;28;20046;-74
2022/08/13 15:30:00;;;;;;;10.13;7.57;;;;;;;;;;4974290;28;20097;-74
2022/08/13 15:32:29;;;;;;;10.30;7.50;;;;;;;;;;4974703;28;20159;-75
2022/08/13 15:35:01;;;;;;;11.18;8.65;;;;;;;;;;4972654;28;20066;-75
2022/08/13 15:37:28;;;;;;;11.80;8.30;;;;;;;;;;4974026;28;20065;-72
2022/08/13 15:40:18;;;;;;;12.10;8.02;;;;;;;;;;4974703;28;20054;-71
2022/08/13 15:42:48;;;;;;;10.73;8.18;;;;;;;;;;4974350;28;20047;-75